sensor_id;sensor_type;location;lat;lon;timestamp;pressure;altitude;pressure_sealevel;temperature;humidity
51067;BME280;37112;45.892;-123.962;2022-07-23T00:01:27;102007.65;;;19.29;63.90
51067;BME280;37112;45.892;-123.962;2022-07-23T00:03:41;102009.08;;;19.27;64.34
51067;BME280;37112;45.892;-123.962;2022-07-23T00:05:54;102009.46;;;19.31;65.02
51067;BME280;37112;45.892;-123.962;2022-07-23T00:08:08;102018.39;;;19.30;64.47
51067;BME280;37112;45.892;-123.962;2022-07-23T00:10:22;102009.09;;;19.27;64.81
51067;BME280;37112;45.892;-123.962;2022-07-23T00:12:36;102014.97;;;19.21;64.60
51067;BME280;37112;45.892;-123.962;2022-07-23T00:15:00;102014.07;;;19.24;65.07
51067;BME280;37112;45.892;-123.962;2022-07-23T00:17:14;102011.27;;;19.31;64.85
51067;BME280;37112;45.892;-123.962;2022-07-23T00:19:27;102005.61;;;19.32;64.36
51067;BME280;37112;45.892;-123.962;2022-07-23T00:21:41;102007.55;;;19.34;65.08
51067;BME280;37112;45.892;-123.962;2022-07-23T00:23:54;102012.65;;;19.40;64.24
51067;BME280;37112;45.892;-123.962;2022-07-23T00:26:07;102015.28;;;19.39;64.17
51067;BME280;37112;45.892;-123.962;2022-07-23T00:28:20;102012.44;;;19.39;64.26
51067;BME280;37112;45.892;-123.962;2022-07-23T00:30:34;102014.24;;;19.45;63.83
51067;BME280;37112;45.892;-123.962;2022-07-23T00:32:53;102013.13;;;19.37;63.36
51067;BME280;37112;45.892;-123.962;2022-07-23T00:35:07;102010.81;;;19.32;63.90
51067;BME280;37112;45.892;-123.962;2022-07-23T00:37:20;102010.52;;;19.34;63.42
51067;BME280;37112;45.892;-123.962;2022-07-23T00:39:34;102015.05;;;19.31;63.66
51067;BME280;37112;45.892;-123.962;2022-07-23T00:41:47;102021.92;;;19.31;63.81
51067;BME280;37112;45.892;-123.962;2022-07-23T00:44:16;102015.19;;;19.32;64.17
51067;BME280;37112;45.892;-123.962;2022-07-23T00:46:29;102010.89;;;19.36;63.59
51067;BME280;37112;45.892;-123.962;2022-07-23T00:48:43;102011.27;;;19.29;63.79
51067;BME280;37112;45.892;-123.962;2022-07-23T00:50:56;102005.67;;;19.23;63.79
51067;BME280;37112;45.892;-123.962;2022-07-23T00:53:25;102010.79;;;19.00;63.37
51067;BME280;37112;45.892;-123.962;2022-07-23T00:55:39;102011.30;;;18.79;64.38
51067;BME280;37112;45.892;-123.962;2022-07-23T00:57:52;102013.21;;;18.61;64.89
51067;BME280;37112;45.892;-123.962;2022-07-23T01:00:08;102012.42;;;18.45;65.53
51067;BME280;37112;45.892;-123.962;2022-07-23T01:02:21;102011.29;;;18.38;66.00
51067;BME280;37112;45.892;-123.962;2022-07-23T01:04:34;102010.60;;;18.38;66.34
51067;BME280;37112;45.892;-123.962;2022-07-23T01:06:47;102009.40;;;18.31;66.30
51067;BME280;37112;45.892;-123.962;2022-07-23T01:09:00;102009.58;;;18.22;66.20
51067;BME280;37112;45.892;-123.962;2022-07-23T01:11:14;102007.38;;;18.16;66.54
51067;BME280;37112;45.892;-123.962;2022-07-23T01:13:27;102005.34;;;18.12;66.65
51067;BME280;37112;45.892;-123.962;2022-07-23T01:15:40;102006.21;;;18.09;66.28
51067;BME280;37112;45.892;-123.962;2022-07-23T01:17:53;102001.20;;;18.12;66.68
51067;BME280;37112;45.892;-123.962;2022-07-23T01:20:09;102000.52;;;18.16;66.86
51067;BME280;37112;45.892;-123.962;2022-07-23T01:22:22;102001.00;;;18.25;66.66
51067;BME280;37112;45.892;-123.962;2022-07-23T01:24:36;102001.27;;;18.26;65.52
51067;BME280;37112;45.892;-123.962;2022-07-23T01:26:49;102000.45;;;18.28;66.37
51067;BME280;37112;45.892;-123.962;2022-07-23T01:29:02;101996.02;;;18.38;66.83
51067;BME280;37112;45.892;-123.962;2022-07-23T01:31:17;101995.27;;;18.43;65.70
51067;BME280;37112;45.892;-123.962;2022-07-23T01:33:30;101996.89;;;18.39;65.90
51067;BME280;37112;45.892;-123.962;2022-07-23T01:35:43;101990.48;;;18.40;65.58
51067;BME280;37112;45.892;-123.962;2022-07-23T01:38:01;101990.79;;;18.43;65.80
51067;BME280;37112;45.892;-123.962;2022-07-23T01:40:20;101987.05;;;18.47;65.50
51067;BME280;37112;45.892;-123.962;2022-07-23T01:42:34;101989.45;;;18.48;65.32
51067;BME280;37112;45.892;-123.962;2022-07-23T01:44:48;101990.77;;;18.43;65.25
51067;BME280;37112;45.892;-123.962;2022-07-23T01:47:02;101988.86;;;18.33;65.20
51067;BME280;37112;45.892;-123.962;2022-07-23T01:49:15;101990.55;;;18.28;65.54
51067;BME280;37112;45.892;-123.962;2022-07-23T01:51:40;101987.38;;;18.27;65.28
51067;BME280;37112;45.892;-123.962;2022-07-23T01:54:21;101986.52;;;18.16;65.19
51067;BME280;37112;45.892;-123.962;2022-07-23T01:56:34;101984.27;;;18.15;65.61
51067;BME280;37112;45.892;-123.962;2022-07-23T01:58:47;101985.23;;;18.14;65.65
51067;BME280;37112;45.892;-123.962;2022-07-23T02:01:01;101988.67;;;18.09;65.08
51067;BME280;37112;45.892;-123.962;2022-07-23T02:03:14;101987.38;;;18.02;65.58
51067;BME280;37112;45.892;-123.962;2022-07-23T02:05:28;101985.33;;;17.96;65.36
51067;BME280;37112;45.892;-123.962;2022-07-23T02:07:43;101985.90;;;17.91;65.65
51067;BME280;37112;45.892;-123.962;2022-07-23T02:09:56;101984.75;;;17.88;65.71
51067;BME280;37112;45.892;-123.962;2022-07-23T02:12:09;101982.44;;;17.83;65.55
51067;BME280;37112;45.892;-123.962;2022-07-23T02:14:22;101983.20;;;17.83;65.54
51067;BME280;37112;45.892;-123.962;2022-07-23T02:16:35;101981.17;;;17.84;65.63
51067;BME280;37112;45.892;-123.962;2022-07-23T02:18:48;101981.52;;;17.86;65.65
51067;BME280;37112;45.892;-123.962;2022-07-23T02:21:01;101978.41;;;17.91;65.36
51067;BME280;37112;45.892;-123.962;2022-07-23T02:23:16;101976.83;;;17.91;65.08
51067;BME280;37112;45.892;-123.962;2022-07-23T02:25:30;101980.09;;;17.90;65.18
51067;BME280;37112;45.892;-123.962;2022-07-23T02:27:43;101977.86;;;17.88;64.54
51067;BME280;37112;45.892;-123.962;2022-07-23T02:29:56;101979.40;;;17.80;63.95
51067;BME280;37112;45.892;-123.962;2022-07-23T02:32:10;101977.02;;;17.72;64.08
51067;BME280;37112;45.892;-123.962;2022-07-23T02:34:25;101975.71;;;17.67;64.39
51067;BME280;37112;45.892;-123.962;2022-07-23T02:36:39;101974.16;;;17.64;64.56
51067;BME280;37112;45.892;-123.962;2022-07-23T02:38:52;101972.45;;;17.63;64.78
51067;BME280;37112;45.892;-123.962;2022-07-23T02:41:05;101977.56;;;17.60;64.69
51067;BME280;37112;45.892;-123.962;2022-07-23T02:43:19;101977.40;;;17.57;65.01
51067;BME280;37112;45.892;-123.962;2022-07-23T02:45:32;101975.71;;;17.56;65.00
51067;BME280;37112;45.892;-123.962;2022-07-23T02:47:45;101976.59;;;17.53;64.79
51067;BME280;37112;45.892;-123.962;2022-07-23T02:49:58;101976.32;;;17.48;64.83
51067;BME280;37112;45.892;-123.962;2022-07-23T02:52:12;101978.69;;;17.43;65.08
51067;BME280;37112;45.892;-123.962;2022-07-23T02:54:25;101974.58;;;17.42;65.40
51067;BME280;37112;45.892;-123.962;2022-07-23T02:56:39;101981.08;;;17.42;65.28
51067;BME280;37112;45.892;-123.962;2022-07-23T02:58:53;101984.91;;;17.39;65.36
51067;BME280;37112;45.892;-123.962;2022-07-23T03:01:06;101984.77;;;17.36;65.42
51067;BME280;37112;45.892;-123.962;2022-07-23T03:03:20;101988.91;;;17.34;65.43
51067;BME280;37112;45.892;-123.962;2022-07-23T03:05:38;101984.67;;;17.31;65.55
51067;BME280;37112;45.892;-123.962;2022-07-23T03:07:51;101988.39;;;17.29;65.85
51067;BME280;37112;45.892;-123.962;2022-07-23T03:10:05;101989.19;;;17.25;66.07
51067;BME280;37112;45.892;-123.962;2022-07-23T03:12:18;101989.73;;;17.23;66.07
51067;BME280;37112;45.892;-123.962;2022-07-23T03:14:32;101990.15;;;17.20;66.05
51067;BME280;37112;45.892;-123.962;2022-07-23T03:16:45;101986.97;;;17.17;66.34
51067;BME280;37112;45.892;-123.962;2022-07-23T03:19:02;101987.52;;;17.17;66.48
51067;BME280;37112;45.892;-123.962;2022-07-23T03:21:15;101989.80;;;17.12;66.67
51067;BME280;37112;45.892;-123.962;2022-07-23T03:23:28;101994.28;;;17.10;66.82
51067;BME280;37112;45.892;-123.962;2022-07-23T03:25:41;101996.35;;;17.04;66.41
51067;BME280;37112;45.892;-123.962;2022-07-23T03:28:01;101995.61;;;16.97;66.47
51067;BME280;37112;45.892;-123.962;2022-07-23T03:30:15;101993.34;;;16.94;66.61
51067;BME280;37112;45.892;-123.962;2022-07-23T03:32:28;101999.63;;;16.93;66.92
51067;BME280;37112;45.892;-123.962;2022-07-23T03:34:41;101996.55;;;16.94;66.88
51067;BME280;37112;45.892;-123.962;2022-07-23T03:36:55;102000.98;;;16.95;67.04
51067;BME280;37112;45.892;-123.962;2022-07-23T03:39:11;102000.14;;;16.96;67.12
51067;BME280;37112;45.892;-123.962;2022-07-23T03:41:24;101998.02;;;16.96;67.09
51067;BME280;37112;45.892;-123.962;2022-07-23T03:43:37;102001.45;;;16.95;67.14
51067;BME280;37112;45.892;-123.962;2022-07-23T03:45:52;101993.58;;;16.93;66.97
51067;BME280;37112;45.892;-123.962;2022-07-23T03:48:05;101993.83;;;16.89;66.95
51067;BME280;37112;45.892;-123.962;2022-07-23T03:50:19;101990.26;;;16.87;67.02
51067;BME280;37112;45.892;-123.962;2022-07-23T03:52:32;101994.19;;;16.85;67.01
51067;BME280;37112;45.892;-123.962;2022-07-23T03:54:45;101994.79;;;16.82;67.07
51067;BME280;37112;45.892;-123.962;2022-07-23T03:56:58;101994.46;;;16.76;66.93
51067;BME280;37112;45.892;-123.962;2022-07-23T03:59:13;101999.48;;;16.74;67.18
51067;BME280;37112;45.892;-123.962;2022-07-23T04:01:32;101997.92;;;16.73;67.31
51067;BME280;37112;45.892;-123.962;2022-07-23T04:03:45;101998.63;;;16.73;67.44
51067;BME280;37112;45.892;-123.962;2022-07-23T04:05:59;102000.27;;;16.70;67.34
51067;BME280;37112;45.892;-123.962;2022-07-23T04:08:12;102000.63;;;16.65;67.18
51067;BME280;37112;45.892;-123.962;2022-07-23T04:10:29;102003.83;;;16.61;67.45
51067;BME280;37112;45.892;-123.962;2022-07-23T04:12:44;102002.95;;;16.60;67.75
51067;BME280;37112;45.892;-123.962;2022-07-23T04:14:57;102003.54;;;16.62;67.80
51067;BME280;37112;45.892;-123.962;2022-07-23T04:17:10;102006.35;;;16.63;67.97
51067;BME280;37112;45.892;-123.962;2022-07-23T04:19:23;102010.86;;;16.65;68.04
51067;BME280;37112;45.892;-123.962;2022-07-23T04:21:43;102010.16;;;16.60;67.71
51067;BME280;37112;45.892;-123.962;2022-07-23T04:24:13;102011.67;;;16.54;67.80
51067;BME280;37112;45.892;-123.962;2022-07-23T04:26:26;102011.42;;;16.52;67.99
51067;BME280;37112;45.892;-123.962;2022-07-23T04:28:39;102009.55;;;16.51;68.10
51067;BME280;37112;45.892;-123.962;2022-07-23T04:30:53;102008.55;;;16.50;68.14
51067;BME280;37112;45.892;-123.962;2022-07-23T04:33:10;102006.35;;;16.51;68.24
51067;BME280;37112;45.892;-123.962;2022-07-23T04:35:24;102006.28;;;16.52;68.36
51067;BME280;37112;45.892;-123.962;2022-07-23T04:37:44;102009.59;;;16.53;68.39
51067;BME280;37112;45.892;-123.962;2022-07-23T04:39:59;102008.48;;;16.53;68.50
51067;BME280;37112;45.892;-123.962;2022-07-23T04:42:12;102011.75;;;16.55;68.61
51067;BME280;37112;45.892;-123.962;2022-07-23T04:44:25;102017.36;;;16.57;68.75
51067;BME280;37112;45.892;-123.962;2022-07-23T04:46:39;102018.52;;;16.59;68.89
51067;BME280;37112;45.892;-123.962;2022-07-23T04:48:52;102017.11;;;16.60;68.88
51067;BME280;37112;45.892;-123.962;2022-07-23T04:51:06;102019.58;;;16.63;69.01
51067;BME280;37112;45.892;-123.962;2022-07-23T04:53:20;102019.39;;;16.63;68.99
51067;BME280;37112;45.892;-123.962;2022-07-23T04:55:35;102024.37;;;16.61;68.98
51067;BME280;37112;45.892;-123.962;2022-07-23T04:57:49;102026.91;;;16.59;69.02
51067;BME280;37112;45.892;-123.962;2022-07-23T05:00:02;102025.01;;;16.58;69.05
51067;BME280;37112;45.892;-123.962;2022-07-23T05:02:16;102027.52;;;16.58;69.24
51067;BME280;37112;45.892;-123.962;2022-07-23T05:04:30;102028.98;;;16.60;69.31
51067;BME280;37112;45.892;-123.962;2022-07-23T05:06:44;102029.45;;;16.61;69.35
51067;BME280;37112;45.892;-123.962;2022-07-23T05:08:57;102030.36;;;16.60;69.38
51067;BME280;37112;45.892;-123.962;2022-07-23T05:11:12;102029.35;;;16.60;69.32
51067;BME280;37112;45.892;-123.962;2022-07-23T05:13:25;102027.92;;;16.57;69.42
51067;BME280;37112;45.892;-123.962;2022-07-23T05:15:39;102028.61;;;16.55;69.53
51067;BME280;37112;45.892;-123.962;2022-07-23T05:17:52;102032.09;;;16.54;69.59
51067;BME280;37112;45.892;-123.962;2022-07-23T05:20:06;102031.95;;;16.51;69.96
51067;BME280;37112;45.892;-123.962;2022-07-23T05:22:20;102036.65;;;16.48;70.39
51067;BME280;37112;45.892;-123.962;2022-07-23T05:24:33;102036.33;;;16.45;70.47
51067;BME280;37112;45.892;-123.962;2022-07-23T05:26:46;102034.05;;;16.41;70.77
51067;BME280;37112;45.892;-123.962;2022-07-23T05:29:01;102034.02;;;16.39;70.80
51067;BME280;37112;45.892;-123.962;2022-07-23T05:31:15;102031.77;;;16.40;71.02
51067;BME280;37112;45.892;-123.962;2022-07-23T05:33:28;102033.11;;;16.39;71.04
51067;BME280;37112;45.892;-123.962;2022-07-23T05:35:41;102031.32;;;16.37;71.13
51067;BME280;37112;45.892;-123.962;2022-07-23T05:38:08;102031.64;;;16.38;71.44
51067;BME280;37112;45.892;-123.962;2022-07-23T05:40:22;102032.45;;;16.36;71.32
51067;BME280;37112;45.892;-123.962;2022-07-23T05:42:35;102030.46;;;16.34;71.35
51067;BME280;37112;45.892;-123.962;2022-07-23T05:44:50;102030.29;;;16.34;71.53
51067;BME280;37112;45.892;-123.962;2022-07-23T05:47:03;102028.63;;;16.32;71.51
51067;BME280;37112;45.892;-123.962;2022-07-23T05:49:17;102029.61;;;16.31;71.67
51067;BME280;37112;45.892;-123.962;2022-07-23T05:51:55;102031.29;;;16.28;71.73
51067;BME280;37112;45.892;-123.962;2022-07-23T05:54:15;102031.16;;;16.24;71.88
51067;BME280;37112;45.892;-123.962;2022-07-23T05:56:29;102028.36;;;16.21;72.03
51067;BME280;37112;45.892;-123.962;2022-07-23T05:58:41;102028.20;;;16.21;72.24
51067;BME280;37112;45.892;-123.962;2022-07-23T06:00:56;102022.67;;;16.21;72.30
51067;BME280;37112;45.892;-123.962;2022-07-23T06:03:12;102015.40;;;16.19;72.51
51067;BME280;37112;45.892;-123.962;2022-07-23T06:05:26;102016.06;;;16.20;72.56
51067;BME280;37112;45.892;-123.962;2022-07-23T06:07:39;102016.58;;;16.17;72.69
51067;BME280;37112;45.892;-123.962;2022-07-23T06:09:52;102019.35;;;16.14;72.72
51067;BME280;37112;45.892;-123.962;2022-07-23T06:12:21;102019.33;;;16.09;72.74
51067;BME280;37112;45.892;-123.962;2022-07-23T06:14:35;102014.40;;;16.05;73.04
51067;BME280;37112;45.892;-123.962;2022-07-23T06:16:48;102015.88;;;16.02;73.20
51067;BME280;37112;45.892;-123.962;2022-07-23T06:19:02;102013.34;;;16.00;73.36
51067;BME280;37112;45.892;-123.962;2022-07-23T06:21:16;102012.89;;;15.99;73.64
51067;BME280;37112;45.892;-123.962;2022-07-23T06:23:49;102011.43;;;15.97;73.80
51067;BME280;37112;45.892;-123.962;2022-07-23T06:26:02;102013.46;;;15.93;73.71
51067;BME280;37112;45.892;-123.962;2022-07-23T06:28:15;102010.46;;;15.90;73.83
51067;BME280;37112;45.892;-123.962;2022-07-23T06:30:29;102008.48;;;15.87;74.02
51067;BME280;37112;45.892;-123.962;2022-07-23T06:32:44;102010.77;;;15.88;74.19
51067;BME280;37112;45.892;-123.962;2022-07-23T06:34:58;102004.10;;;15.86;74.19
51067;BME280;37112;45.892;-123.962;2022-07-23T06:37:11;102002.31;;;15.83;74.31
51067;BME280;37112;45.892;-123.962;2022-07-23T06:39:28;102000.36;;;15.81;74.31
51067;BME280;37112;45.892;-123.962;2022-07-23T06:41:41;101998.88;;;15.79;74.39
51067;BME280;37112;45.892;-123.962;2022-07-23T06:43:59;101998.20;;;15.81;74.74
51067;BME280;37112;45.892;-123.962;2022-07-23T06:46:13;101996.19;;;15.84;74.82
51067;BME280;37112;45.892;-123.962;2022-07-23T06:48:27;102000.35;;;15.86;74.85
51067;BME280;37112;45.892;-123.962;2022-07-23T06:50:40;102002.63;;;15.86;74.78
51067;BME280;37112;45.892;-123.962;2022-07-23T06:52:53;102004.63;;;15.86;74.67
51067;BME280;37112;45.892;-123.962;2022-07-23T06:55:08;102005.69;;;15.84;74.62
51067;BME280;37112;45.892;-123.962;2022-07-23T06:57:23;102005.05;;;15.83;74.63
51067;BME280;37112;45.892;-123.962;2022-07-23T06:59:38;102001.98;;;15.81;74.69
51067;BME280;37112;45.892;-123.962;2022-07-23T07:01:52;102000.04;;;15.80;74.68
51067;BME280;37112;45.892;-123.962;2022-07-23T07:04:05;102000.73;;;15.81;74.81
51067;BME280;37112;45.892;-123.962;2022-07-23T07:06:19;102001.27;;;15.80;74.81
51067;BME280;37112;45.892;-123.962;2022-07-23T07:08:33;102000.51;;;15.81;74.90
51067;BME280;37112;45.892;-123.962;2022-07-23T07:10:46;102000.32;;;15.81;74.81
51067;BME280;37112;45.892;-123.962;2022-07-23T07:13:00;101999.94;;;15.82;74.83
51067;BME280;37112;45.892;-123.962;2022-07-23T07:15:13;102005.20;;;15.81;74.86
51067;BME280;37112;45.892;-123.962;2022-07-23T07:17:26;102001.77;;;15.78;74.79
51067;BME280;37112;45.892;-123.962;2022-07-23T07:19:39;102004.95;;;15.76;74.87
51067;BME280;37112;45.892;-123.962;2022-07-23T07:21:52;102000.73;;;15.75;74.95
51067;BME280;37112;45.892;-123.962;2022-07-23T07:24:06;101998.40;;;15.73;74.96
51067;BME280;37112;45.892;-123.962;2022-07-23T07:26:20;101998.86;;;15.71;75.03
51067;BME280;37112;45.892;-123.962;2022-07-23T07:28:33;102000.15;;;15.70;75.24
51067;BME280;37112;45.892;-123.962;2022-07-23T07:30:46;102007.11;;;15.71;75.35
51067;BME280;37112;45.892;-123.962;2022-07-23T07:32:59;102007.64;;;15.69;75.27
51067;BME280;37112;45.892;-123.962;2022-07-23T07:35:12;102008.70;;;15.64;75.33
51067;BME280;37112;45.892;-123.962;2022-07-23T07:37:26;102008.98;;;15.62;75.45
51067;BME280;37112;45.892;-123.962;2022-07-23T07:39:39;102011.29;;;15.59;75.56
51067;BME280;37112;45.892;-123.962;2022-07-23T07:41:52;102010.26;;;15.59;75.66
51067;BME280;37112;45.892;-123.962;2022-07-23T07:44:05;102015.52;;;15.58;75.72
51067;BME280;37112;45.892;-123.962;2022-07-23T07:46:18;102012.18;;;15.57;75.76
51067;BME280;37112;45.892;-123.962;2022-07-23T07:48:34;102013.61;;;15.57;75.84
51067;BME280;37112;45.892;-123.962;2022-07-23T07:50:47;102013.41;;;15.57;75.63
51067;BME280;37112;45.892;-123.962;2022-07-23T07:53:01;102007.75;;;15.53;75.60
51067;BME280;37112;45.892;-123.962;2022-07-23T07:55:15;102007.58;;;15.53;75.68
51067;BME280;37112;45.892;-123.962;2022-07-23T07:57:29;102008.23;;;15.52;75.49
51067;BME280;37112;45.892;-123.962;2022-07-23T07:59:42;102009.23;;;15.50;75.49
51067;BME280;37112;45.892;-123.962;2022-07-23T08:01:55;102008.91;;;15.50;75.35
51067;BME280;37112;45.892;-123.962;2022-07-23T08:04:08;102009.00;;;15.48;75.26
51067;BME280;37112;45.892;-123.962;2022-07-23T08:06:22;102011.16;;;15.48;75.28
51067;BME280;37112;45.892;-123.962;2022-07-23T08:08:35;102011.31;;;15.49;75.23
51067;BME280;37112;45.892;-123.962;2022-07-23T08:10:48;102014.40;;;15.47;74.98
51067;BME280;37112;45.892;-123.962;2022-07-23T08:13:01;102009.11;;;15.44;74.82
51067;BME280;37112;45.892;-123.962;2022-07-23T08:15:15;102011.36;;;15.43;74.90
51067;BME280;37112;45.892;-123.962;2022-07-23T08:17:28;102005.11;;;15.42;74.97
51067;BME280;37112;45.892;-123.962;2022-07-23T08:19:42;102002.58;;;15.43;74.86
51067;BME280;37112;45.892;-123.962;2022-07-23T08:21:55;102001.34;;;15.43;74.90
51067;BME280;37112;45.892;-123.962;2022-07-23T08:24:08;101998.76;;;15.44;74.82
51067;BME280;37112;45.892;-123.962;2022-07-23T08:26:21;101998.50;;;15.42;74.62
51067;BME280;37112;45.892;-123.962;2022-07-23T08:28:34;102001.05;;;15.41;74.61
51067;BME280;37112;45.892;-123.962;2022-07-23T08:30:47;101996.52;;;15.40;74.58
51067;BME280;37112;45.892;-123.962;2022-07-23T08:33:02;101995.66;;;15.37;74.52
51067;BME280;37112;45.892;-123.962;2022-07-23T08:35:17;101990.83;;;15.36;74.71
51067;BME280;37112;45.892;-123.962;2022-07-23T08:37:30;101991.79;;;15.38;74.68
51067;BME280;37112;45.892;-123.962;2022-07-23T08:39:43;101997.66;;;15.39;74.62
51067;BME280;37112;45.892;-123.962;2022-07-23T08:41:56;101996.44;;;15.38;74.59
51067;BME280;37112;45.892;-123.962;2022-07-23T08:44:10;101998.36;;;15.36;74.51
51067;BME280;37112;45.892;-123.962;2022-07-23T08:46:24;101994.55;;;15.35;74.47
51067;BME280;37112;45.892;-123.962;2022-07-23T08:48:38;101992.44;;;15.34;74.55
51067;BME280;37112;45.892;-123.962;2022-07-23T08:50:51;101992.61;;;15.34;74.60
51067;BME280;37112;45.892;-123.962;2022-07-23T08:53:07;101993.48;;;15.31;74.43
51067;BME280;37112;45.892;-123.962;2022-07-23T08:55:21;101993.73;;;15.30;74.52
51067;BME280;37112;45.892;-123.962;2022-07-23T08:57:34;101995.52;;;15.30;74.59
51067;BME280;37112;45.892;-123.962;2022-07-23T08:59:47;101995.81;;;15.31;74.57
51067;BME280;37112;45.892;-123.962;2022-07-23T09:02:00;101990.02;;;15.29;74.44
51067;BME280;37112;45.892;-123.962;2022-07-23T09:04:13;101987.38;;;15.27;74.41
51067;BME280;37112;45.892;-123.962;2022-07-23T09:06:26;101989.29;;;15.24;74.42
51067;BME280;37112;45.892;-123.962;2022-07-23T09:08:40;101984.10;;;15.22;74.39
51067;BME280;37112;45.892;-123.962;2022-07-23T09:10:55;101985.61;;;15.24;74.43
51067;BME280;37112;45.892;-123.962;2022-07-23T09:13:08;101984.83;;;15.24;74.45
51067;BME280;37112;45.892;-123.962;2022-07-23T09:15:35;101984.57;;;15.26;74.52
51067;BME280;37112;45.892;-123.962;2022-07-23T09:18:02;101985.85;;;15.28;74.62
51067;BME280;37112;45.892;-123.962;2022-07-23T09:20:16;101985.91;;;15.29;74.52
51067;BME280;37112;45.892;-123.962;2022-07-23T09:22:30;101983.55;;;15.30;74.41
51067;BME280;37112;45.892;-123.962;2022-07-23T09:25:06;101983.02;;;15.30;74.37
51067;BME280;37112;45.892;-123.962;2022-07-23T09:27:20;101980.83;;;15.30;74.31
51067;BME280;37112;45.892;-123.962;2022-07-23T09:29:33;101980.88;;;15.30;74.23
51067;BME280;37112;45.892;-123.962;2022-07-23T09:31:57;101981.34;;;15.31;74.28
51067;BME280;37112;45.892;-123.962;2022-07-23T09:34:15;101984.39;;;15.31;74.15
51067;BME280;37112;45.892;-123.962;2022-07-23T09:36:32;101980.77;;;15.31;74.25
51067;BME280;37112;45.892;-123.962;2022-07-23T09:38:53;101982.45;;;15.33;74.32
51067;BME280;37112;45.892;-123.962;2022-07-23T09:41:13;101980.81;;;15.34;74.21
51067;BME280;37112;45.892;-123.962;2022-07-23T09:43:30;101980.56;;;15.35;74.12
51067;BME280;37112;45.892;-123.962;2022-07-23T09:45:43;101982.73;;;15.35;74.22
51067;BME280;37112;45.892;-123.962;2022-07-23T09:48:12;101979.77;;;15.36;74.11
51067;BME280;37112;45.892;-123.962;2022-07-23T09:50:25;101983.25;;;15.35;74.06
51067;BME280;37112;45.892;-123.962;2022-07-23T09:52:43;101983.33;;;15.34;74.02
51067;BME280;37112;45.892;-123.962;2022-07-23T09:55:00;101982.31;;;15.32;74.04
51067;BME280;37112;45.892;-123.962;2022-07-23T09:57:14;101978.98;;;15.31;74.02
51067;BME280;37112;45.892;-123.962;2022-07-23T09:59:29;101979.73;;;15.31;74.10
51067;BME280;37112;45.892;-123.962;2022-07-23T10:01:43;101981.91;;;15.30;74.07
51067;BME280;37112;45.892;-123.962;2022-07-23T10:03:56;101980.80;;;15.28;74.14
51067;BME280;37112;45.892;-123.962;2022-07-23T10:06:43;101979.55;;;15.28;74.22
51067;BME280;37112;45.892;-123.962;2022-07-23T10:09:25;101979.42;;;15.28;74.24
51067;BME280;37112;45.892;-123.962;2022-07-23T10:12:03;101981.19;;;15.28;74.41
51067;BME280;37112;45.892;-123.962;2022-07-23T10:14:26;101980.08;;;15.26;74.43
51067;BME280;37112;45.892;-123.962;2022-07-23T10:16:46;101979.10;;;15.27;74.60
51067;BME280;37112;45.892;-123.962;2022-07-23T10:18:59;101977.64;;;15.30;74.74
51067;BME280;37112;45.892;-123.962;2022-07-23T10:21:12;101978.55;;;15.33;74.87
51067;BME280;37112;45.892;-123.962;2022-07-23T10:23:32;101978.67;;;15.36;74.88
51067;BME280;37112;45.892;-123.962;2022-07-23T10:25:51;101974.70;;;15.39;74.86
51067;BME280;37112;45.892;-123.962;2022-07-23T10:28:30;101980.71;;;15.40;74.71
51067;BME280;37112;45.892;-123.962;2022-07-23T10:30:49;101978.46;;;15.42;74.75
51067;BME280;37112;45.892;-123.962;2022-07-23T10:33:20;101976.00;;;15.41;74.61
51067;BME280;37112;45.892;-123.962;2022-07-23T10:35:46;101979.42;;;15.41;74.58
51067;BME280;37112;45.892;-123.962;2022-07-23T10:38:10;101976.76;;;15.41;74.54
51067;BME280;37112;45.892;-123.962;2022-07-23T10:40:25;101977.45;;;15.41;74.58
51067;BME280;37112;45.892;-123.962;2022-07-23T10:42:37;101978.56;;;15.43;74.62
51067;BME280;37112;45.892;-123.962;2022-07-23T10:44:51;101979.94;;;15.44;74.57
51067;BME280;37112;45.892;-123.962;2022-07-23T10:47:06;101978.95;;;15.45;74.60
51067;BME280;37112;45.892;-123.962;2022-07-23T10:49:37;101979.24;;;15.46;74.69
51067;BME280;37112;45.892;-123.962;2022-07-23T10:52:24;101981.20;;;15.46;74.77
51067;BME280;37112;45.892;-123.962;2022-07-23T10:54:38;101982.81;;;15.46;74.63
51067;BME280;37112;45.892;-123.962;2022-07-23T10:57:10;101978.36;;;15.46;74.55
51067;BME280;37112;45.892;-123.962;2022-07-23T10:59:23;101982.05;;;15.47;74.61
51067;BME280;37112;45.892;-123.962;2022-07-23T11:01:40;101978.56;;;15.46;74.59
51067;BME280;37112;45.892;-123.962;2022-07-23T11:04:00;101977.02;;;15.45;74.39
51067;BME280;37112;45.892;-123.962;2022-07-23T11:06:19;101978.83;;;15.42;74.30
51067;BME280;37112;45.892;-123.962;2022-07-23T11:08:36;101978.54;;;15.41;74.37
51067;BME280;37112;45.892;-123.962;2022-07-23T11:10:51;101983.67;;;15.42;74.42
51067;BME280;37112;45.892;-123.962;2022-07-23T11:13:35;101982.32;;;15.40;74.33
51067;BME280;37112;45.892;-123.962;2022-07-23T11:16:10;101986.38;;;15.39;74.30
51067;BME280;37112;45.892;-123.962;2022-07-23T11:21:50;101984.17;;;15.37;74.30
51067;BME280;37112;45.892;-123.962;2022-07-23T11:24:08;101985.75;;;15.35;74.16
51067;BME280;37112;45.892;-123.962;2022-07-23T11:26:44;101986.01;;;15.34;74.18